createdAt,value
2023-04-09T00:02:16.362Z,39.25
2023-04-09T00:04:43.998Z,59.15
2023-04-09T00:07:11.495Z,57.42
2023-04-09T00:09:39.092Z,58.28
2023-04-09T00:12:06.400Z,59.40
2023-04-09T00:14:33.952Z,57.35
2023-04-09T00:17:01.261Z,51.88
2023-04-09T00:19:28.810Z,47.22
2023-04-09T00:21:56.246Z,44.95
2023-04-09T00:24:23.780Z,47.65
2023-04-09T00:26:51.414Z,52.50
2023-04-09T00:29:19.114Z,54.03
2023-04-09T00:31:46.428Z,53.75
2023-04-09T00:34:14.142Z,62.88
2023-04-09T00:36:41.382Z,57.00
2023-04-09T00:39:08.909Z,52.15
2023-04-09T00:41:36.197Z,55.35
2023-04-09T00:44:03.822Z,55.15
2023-04-09T00:46:32.651Z,50.53
2023-04-09T00:49:00.299Z,46.55
2023-04-09T00:51:28.725Z,51.88
2023-04-09T00:53:56.822Z,46.85
2023-04-09T00:56:25.646Z,52.63
2023-04-09T00:58:54.339Z,51.10
2023-04-09T01:01:21.833Z,47.60
2023-04-09T01:03:49.621Z,54.05
2023-04-09T01:06:48.206Z,49.10
2023-04-09T01:09:30.344Z,49.33
2023-04-09T01:12:16.279Z,52.58
2023-04-09T01:15:10.025Z,47.47
2023-04-09T01:18:31.510Z,41.47
2023-04-09T01:21:06.968Z,36.50
2023-04-09T01:23:58.157Z,33.83
2023-04-09T01:27:06.919Z,32.22
2023-04-09T01:29:41.492Z,35.13
2023-04-09T01:32:10.758Z,32.88
2023-04-09T01:34:39.091Z,30.77
2023-04-09T01:37:08.512Z,29.20
2023-04-09T01:39:38.652Z,34.45
2023-04-09T01:42:11.231Z,34.33
2023-04-09T01:44:45.461Z,32.40
2023-04-09T01:47:13.836Z,30.40
2023-04-09T01:49:44.895Z,28.63
2023-04-09T01:52:12.779Z,32.35
2023-04-09T01:54:40.031Z,28.65
2023-04-09T01:57:07.722Z,30.88
2023-04-09T01:59:34.970Z,29.77
2023-04-09T02:02:17.578Z,28.45
2023-04-09T02:04:51.637Z,26.35
2023-04-09T02:07:27.198Z,28.77
2023-04-09T02:09:56.243Z,29.40
2023-04-09T02:12:27.213Z,26.77
2023-04-09T02:14:55.261Z,22.70
2023-04-09T02:17:22.928Z,26.40
2023-04-09T02:19:50.943Z,27.08
2023-04-09T02:22:19.053Z,36.08
2023-04-09T02:24:47.235Z,36.83
2023-04-09T02:27:14.905Z,35.70
2023-04-09T02:29:43.723Z,36.15
2023-04-09T02:32:11.229Z,44.90
2023-04-09T02:34:38.528Z,42.20
2023-04-09T02:37:06.093Z,43.53
2023-04-09T02:39:33.461Z,35.42
2023-04-09T02:42:01.405Z,35.88
2023-04-09T02:44:28.722Z,32.33
2023-04-09T02:46:56.377Z,35.05
2023-04-09T02:49:23.690Z,33.67
2023-04-09T02:51:51.188Z,27.05
2023-04-09T02:54:18.448Z,29.33
2023-04-09T02:56:45.964Z,34.55
2023-04-09T02:59:13.197Z,34.03
2023-04-09T03:01:41.128Z,37.30
2023-04-09T03:04:08.594Z,35.45
2023-04-09T03:06:36.218Z,39.15
2023-04-09T03:09:03.568Z,35.95
2023-04-09T03:11:32.237Z,40.28
2023-04-09T03:13:59.461Z,45.05
2023-04-09T03:16:27.085Z,41.85
2023-04-09T03:18:54.469Z,43.25
2023-04-09T03:21:22.174Z,36.05
2023-04-09T03:23:49.428Z,35.20
2023-04-09T03:26:16.987Z,39.63
2023-04-09T03:28:44.210Z,40.15
2023-04-09T03:31:11.780Z,38.30
2023-04-09T03:33:38.998Z,42.53
2023-04-09T03:36:06.727Z,42.05
2023-04-09T03:38:33.991Z,35.25
2023-04-09T03:41:01.459Z,38.95
2023-04-09T03:43:28.690Z,52.28
2023-04-09T03:45:56.310Z,51.40
2023-04-09T03:48:23.541Z,51.40
2023-04-09T03:50:51.133Z,44.90
2023-04-09T03:53:18.364Z,38.60
2023-04-09T03:55:46.472Z,39.33
2023-04-09T03:58:13.730Z,49.03
2023-04-09T04:00:41.371Z,60.38
2023-04-09T04:03:08.748Z,63.20
2023-04-09T04:05:36.407Z,59.08
2023-04-09T04:08:03.617Z,49.00
2023-04-09T04:10:31.169Z,65.05
2023-04-09T04:12:58.442Z,63.30
2023-04-09T04:15:26.045Z,54.95
2023-04-09T04:17:53.438Z,54.03
2023-04-09T04:20:21.617Z,47.00
2023-04-09T04:22:48.831Z,47.30
2023-04-09T04:25:16.444Z,48.83
2023-04-09T04:27:43.676Z,55.38
2023-04-09T04:30:11.418Z,63.60
2023-04-09T04:32:38.785Z,49.45
2023-04-09T04:35:06.776Z,43.17
2023-04-09T04:37:34.232Z,49.13
2023-04-09T04:40:04.379Z,68.60
2023-04-09T04:42:31.723Z,50.78
2023-04-09T04:44:59.451Z,52.97
2023-04-09T04:47:26.882Z,55.47
2023-04-09T04:49:54.646Z,54.30
2023-04-09T04:52:21.976Z,57.72
2023-04-09T04:54:49.507Z,64.63
2023-04-09T04:57:16.767Z,58.63
2023-04-09T04:59:44.426Z,52.47
2023-04-09T05:02:11.839Z,72.00
2023-04-09T05:04:39.763Z,70.10
2023-04-09T05:07:07.287Z,68.40
2023-04-09T05:09:34.792Z,60.33
2023-04-09T05:12:02.546Z,54.22
2023-04-09T05:14:30.097Z,47.75
2023-04-09T05:16:57.373Z,47.65
2023-04-09T05:19:25.016Z,43.72
2023-04-09T05:21:52.322Z,49.95
2023-04-09T05:24:19.919Z,50.67
2023-04-09T05:26:47.067Z,52.92
2023-04-09T05:29:14.720Z,54.67
2023-04-09T05:31:43.169Z,57.15
2023-04-09T05:34:10.794Z,58.33
2023-04-09T05:36:38.031Z,75.97
2023-04-09T05:39:05.589Z,67.13
2023-04-09T05:41:33.716Z,61.42
2023-04-09T05:44:01.372Z,68.15
2023-04-09T05:46:29.261Z,74.28
2023-04-09T05:48:56.797Z,83.40
2023-04-09T05:51:24.143Z,71.75
2023-04-09T05:53:51.875Z,77.18
2023-04-09T05:56:19.574Z,64.18
2023-04-09T05:58:47.741Z,75.95
2023-04-09T06:01:15.464Z,70.43
2023-04-09T06:03:44.004Z,70.85
2023-04-09T06:06:11.501Z,71.68
2023-04-09T06:08:39.265Z,66.60
2023-04-09T06:11:10.579Z,68.80
2023-04-09T06:13:38.857Z,66.03
2023-04-09T06:16:10.350Z,63.97
2023-04-09T06:18:37.963Z,74.40
2023-04-09T06:21:07.729Z,76.53
2023-04-09T06:23:37.194Z,71.88
2023-04-09T06:26:04.499Z,71.97
2023-04-09T06:28:32.448Z,78.22
2023-04-09T06:30:59.830Z,72.43
2023-04-09T06:33:27.650Z,78.05
2023-04-09T06:35:54.933Z,74.95
2023-04-09T06:38:22.502Z,74.57
2023-04-09T06:40:49.848Z,67.03
2023-04-09T06:43:17.353Z,70.93
2023-04-09T06:45:44.649Z,62.60
2023-04-09T06:48:12.222Z,60.50
2023-04-09T06:50:39.614Z,62.78
2023-04-09T06:53:07.661Z,66.13
2023-04-09T06:55:34.924Z,70.75
2023-04-09T06:58:02.915Z,76.88
2023-04-09T07:00:30.177Z,74.53
2023-04-09T07:02:57.956Z,68.88
2023-04-09T07:05:25.484Z,70.00
2023-04-09T07:07:53.226Z,64.00
2023-04-09T07:10:20.491Z,61.05
2023-04-09T07:12:48.213Z,57.17
2023-04-09T07:15:15.533Z,63.13
2023-04-09T07:17:43.310Z,61.08
2023-04-09T07:20:11.403Z,55.58
2023-04-09T07:22:39.275Z,60.88
2023-04-09T07:25:07.499Z,75.07
2023-04-09T07:27:35.944Z,69.90
2023-04-09T07:30:04.588Z,69.28
2023-04-09T07:32:32.306Z,67.22
2023-04-09T07:34:59.813Z,63.60
2023-04-09T07:37:27.592Z,59.13
2023-04-09T07:39:54.927Z,55.03
2023-04-09T07:42:22.842Z,53.30
2023-04-09T07:44:50.466Z,52.83
2023-04-09T07:47:18.257Z,132.63
2023-04-09T07:49:45.660Z,125.60
2023-04-09T07:52:13.329Z,139.85
2023-04-09T07:54:40.732Z,71.13
2023-04-09T07:57:08.413Z,56.58
2023-04-09T07:59:36.538Z,47.13
2023-04-09T08:02:04.378Z,41.20
2023-04-09T08:04:32.243Z,34.70
2023-04-09T08:07:00.104Z,47.17
2023-04-09T08:09:27.425Z,43.33
2023-04-09T08:11:55.090Z,51.03
2023-04-09T08:14:22.385Z,43.65
2023-04-09T08:16:50.682Z,48.03
2023-04-09T08:19:20.317Z,46.35
2023-04-09T08:21:51.476Z,47.90
2023-04-09T08:24:18.890Z,45.20
2023-04-09T08:26:47.151Z,39.67
2023-04-09T08:29:15.656Z,47.25
2023-04-09T08:31:43.311Z,41.95
2023-04-09T08:34:10.722Z,45.25
2023-04-09T08:36:38.349Z,49.53
2023-04-09T08:39:05.740Z,52.60
2023-04-09T08:41:35.029Z,49.25
2023-04-09T08:44:02.804Z,47.60
2023-04-09T08:46:30.580Z,53.00
2023-04-09T08:48:57.917Z,173.20
2023-04-09T08:51:25.870Z,147.13
2023-04-09T08:54:03.934Z,121.18
2023-04-09T08:56:32.655Z,62.35
2023-04-09T08:58:59.989Z,59.90
2023-04-09T09:01:30.041Z,53.50
2023-04-09T09:04:00.451Z,51.05
2023-04-09T09:06:33.133Z,59.85
2023-04-09T09:09:21.217Z,50.70
2023-04-09T09:11:52.633Z,64.10
2023-04-09T09:14:20.570Z,60.97
2023-04-09T09:16:56.940Z,60.65
2023-04-09T09:19:27.316Z,62.00
2023-04-09T09:22:00.679Z,59.47
2023-04-09T09:24:28.851Z,59.35
2023-04-09T09:26:57.627Z,64.50
2023-04-09T09:29:26.205Z,60.97
2023-04-09T09:31:56.296Z,68.28
2023-04-09T09:34:25.485Z,62.88
2023-04-09T09:36:53.339Z,58.08
2023-04-09T09:39:22.153Z,62.13
2023-04-09T09:42:08.337Z,66.75
2023-04-09T09:44:35.937Z,70.50
2023-04-09T09:47:05.193Z,64.63
2023-04-09T09:49:32.665Z,60.88
2023-04-09T09:52:03.568Z,65.07
2023-04-09T09:54:43.264Z,65.63
2023-04-09T09:57:14.899Z,68.65
2023-04-09T09:59:52.173Z,62.72
2023-04-09T10:02:24.103Z,97.88
2023-04-09T10:04:55.441Z,63.70
2023-04-09T10:07:24.434Z,54.63
2023-04-09T10:09:54.425Z,58.55
2023-04-09T10:12:27.299Z,58.40
2023-04-09T10:14:56.697Z,64.32
2023-04-09T10:17:24.485Z,51.65
2023-04-09T10:20:49.029Z,47.50
2023-04-09T10:23:31.534Z,54.28
2023-04-09T10:25:58.807Z,51.95
2023-04-09T10:28:26.331Z,56.40
2023-04-09T10:30:55.135Z,51.33
2023-04-09T10:33:29.238Z,51.45
2023-04-09T10:36:04.721Z,51.05
2023-04-09T10:38:38.512Z,49.65
2023-04-09T10:41:42.282Z,47.88
2023-04-09T10:44:35.507Z,49.90
2023-04-09T10:47:04.625Z,52.05
2023-04-09T10:49:42.675Z,56.92
2023-04-09T10:52:13.838Z,56.10
2023-04-09T10:54:46.470Z,56.15
2023-04-09T10:57:16.700Z,44.38
2023-04-09T10:59:55.251Z,41.92
2023-04-09T11:02:40.785Z,39.85
2023-04-09T11:05:32.667Z,39.95
2023-04-09T11:08:09.831Z,36.13
2023-04-09T11:10:44.075Z,43.90
2023-04-09T11:13:17.631Z,42.65
2023-04-09T11:15:46.158Z,38.92
2023-04-09T11:18:23.133Z,28.60
2023-04-09T11:20:58.246Z,26.67
2023-04-09T11:23:26.932Z,30.42
2023-04-09T11:25:55.899Z,35.17
2023-04-09T11:28:24.455Z,38.30
2023-04-09T11:30:53.209Z,34.65
2023-04-09T11:33:20.980Z,34.35
2023-04-09T11:35:49.248Z,34.00
2023-04-09T11:38:16.727Z,37.53
2023-04-09T11:40:48.880Z,53.17
2023-04-09T11:43:17.954Z,66.70
2023-04-09T11:45:49.448Z,90.50
2023-04-09T11:48:23.419Z,52.28
2023-04-09T11:50:51.552Z,35.80
2023-04-09T11:53:22.127Z,34.40
2023-04-09T11:55:53.759Z,35.10
2023-04-09T11:58:26.573Z,49.58
2023-04-09T12:00:58.044Z,46.25
2023-04-09T12:03:36.929Z,34.22
2023-04-09T12:06:07.132Z,38.72
2023-04-09T12:08:36.337Z,41.78
2023-04-09T12:11:12.832Z,39.95
2023-04-09T12:13:44.649Z,40.28
2023-04-09T12:16:13.937Z,37.67
2023-04-09T12:18:41.566Z,33.35
2023-04-09T12:21:09.225Z,28.88
2023-04-09T12:23:36.632Z,25.80
2023-04-09T12:26:04.454Z,32.67
2023-04-09T12:28:31.745Z,27.90
2023-04-09T12:30:59.749Z,27.15
2023-04-09T12:33:27.346Z,35.08
2023-04-09T12:35:58.437Z,31.50
2023-04-09T12:38:26.887Z,25.13
2023-04-09T12:40:54.591Z,28.13
2023-04-09T12:43:21.935Z,30.35
2023-04-09T12:45:49.585Z,29.13
2023-04-09T12:48:16.821Z,31.25
2023-04-09T12:50:44.723Z,28.25
2023-04-09T12:53:12.032Z,27.55
2023-04-09T12:55:41.550Z,27.67
2023-04-09T12:58:10.009Z,31.73
2023-04-09T13:00:37.734Z,27.70
2023-04-09T13:03:05.113Z,29.92
2023-04-09T13:05:35.560Z,34.90
2023-04-09T13:08:03.604Z,28.65
2023-04-09T13:10:31.713Z,29.58
2023-04-09T13:12:59.188Z,25.10
2023-04-09T13:15:27.501Z,28.50
2023-04-09T13:17:55.773Z,24.65
2023-04-09T13:20:23.556Z,25.98
2023-04-09T13:22:51.098Z,25.83
2023-04-09T13:25:18.748Z,27.83
2023-04-09T13:27:46.143Z,28.98
2023-04-09T13:30:13.946Z,26.92
2023-04-09T13:32:41.482Z,27.95
2023-04-09T13:35:10.430Z,25.88
2023-04-09T13:37:37.726Z,29.17
2023-04-09T13:40:06.549Z,26.13
2023-04-09T13:42:33.794Z,19.88
2023-04-09T13:45:01.588Z,21.70
2023-04-09T13:47:28.927Z,17.45
2023-04-09T13:49:56.562Z,19.25
2023-04-09T13:52:26.752Z,23.40
2023-04-09T13:54:56.879Z,20.20
2023-04-09T13:57:24.151Z,20.38
2023-04-09T13:59:51.733Z,19.75
2023-04-09T14:02:19.375Z,20.13
2023-04-09T14:04:47.280Z,17.33
2023-04-09T14:07:14.580Z,17.85
2023-04-09T14:09:42.167Z,16.20
2023-04-09T14:12:09.466Z,15.35
2023-04-09T14:14:36.977Z,10.80
2023-04-09T14:17:04.822Z,9.48
2023-04-09T14:19:32.447Z,9.75
2023-04-09T14:21:59.777Z,11.80
2023-04-09T14:24:27.317Z,12.73
2023-04-09T14:26:54.616Z,12.43
2023-04-09T14:29:22.227Z,14.15
2023-04-09T14:31:49.725Z,16.70
2023-04-09T14:34:17.594Z,17.75
2023-04-09T14:36:44.923Z,19.75
2023-04-09T14:39:12.466Z,14.68
2023-04-09T14:41:39.905Z,13.77
2023-04-09T14:44:07.703Z,10.68
2023-04-09T14:46:36.731Z,11.40
2023-04-09T14:49:04.426Z,8.68
2023-04-09T14:51:31.911Z,9.93
2023-04-09T14:53:59.677Z,9.75
2023-04-09T14:56:27.247Z,10.68
2023-04-09T14:58:54.997Z,13.52
2023-04-09T15:01:22.858Z,14.57
2023-04-09T15:03:50.849Z,13.60
2023-04-09T15:06:18.347Z,19.42
2023-04-09T15:08:46.046Z,16.08
2023-04-09T15:11:17.755Z,15.63
2023-04-09T15:13:45.818Z,16.10
2023-04-09T15:16:23.364Z,19.83
2023-04-09T15:18:52.641Z,18.45
2023-04-09T15:21:20.863Z,16.83
2023-04-09T15:23:51.498Z,21.10
2023-04-09T15:26:19.196Z,24.52
2023-04-09T15:28:46.829Z,18.30
2023-04-09T15:31:14.170Z,14.07
2023-04-09T15:33:44.902Z,12.65
2023-04-09T15:36:12.211Z,14.90
2023-04-09T15:38:39.759Z,14.70
2023-04-09T15:41:07.127Z,11.48
2023-04-09T15:43:34.656Z,12.23
2023-04-09T15:46:11.667Z,11.75
2023-04-09T15:48:39.308Z,16.85
2023-04-09T15:51:06.757Z,15.20
2023-04-09T15:53:34.450Z,15.20
2023-04-09T15:56:02.347Z,15.32
2023-04-09T15:58:29.939Z,13.70
2023-04-09T16:00:57.377Z,15.07
2023-04-09T16:03:25.048Z,17.35
2023-04-09T16:05:52.387Z,16.42
2023-04-09T16:08:19.897Z,19.63
2023-04-09T16:10:47.137Z,21.77
2023-04-09T16:13:14.655Z,20.27
2023-04-09T16:15:41.901Z,19.17
2023-04-09T16:18:10.294Z,21.90
2023-04-09T16:20:37.684Z,18.00
2023-04-09T16:23:05.464Z,14.85
2023-04-09T16:25:32.699Z,20.50
2023-04-09T16:28:00.263Z,17.98
2023-04-09T16:30:27.620Z,17.65
2023-04-09T16:32:55.436Z,18.83
2023-04-09T16:35:22.813Z,21.42
2023-04-09T16:37:51.960Z,21.20
2023-04-09T16:40:24.254Z,22.60
2023-04-09T16:42:51.811Z,21.90
2023-04-09T16:45:19.105Z,32.35
2023-04-09T16:47:50.823Z,32.53
2023-04-09T16:50:20.732Z,26.40
2023-04-09T16:52:48.682Z,25.70
2023-04-09T16:55:16.758Z,25.95
2023-04-09T16:57:44.291Z,25.42
2023-04-09T17:00:12.987Z,23.38
2023-04-09T17:02:40.682Z,23.25
2023-04-09T17:05:09.030Z,26.27
2023-04-09T17:07:36.596Z,29.30
2023-04-09T17:10:04.326Z,29.08
2023-04-09T17:12:32.570Z,28.55
2023-04-09T17:15:00.710Z,24.70
2023-04-09T17:17:28.307Z,24.50
2023-04-09T17:19:56.648Z,28.90
2023-04-09T17:22:24.224Z,35.10
2023-04-09T17:24:52.833Z,33.28
2023-04-09T17:27:20.669Z,34.63
2023-04-09T17:29:48.003Z,29.25
2023-04-09T17:32:15.605Z,30.85
2023-04-09T17:34:46.730Z,33.75
2023-04-09T17:37:14.268Z,36.00
2023-04-09T17:39:41.640Z,35.20
2023-04-09T17:42:11.825Z,31.77
2023-04-09T17:44:39.577Z,30.48
2023-04-09T17:47:07.587Z,31.45
2023-04-09T17:49:34.976Z,30.80
2023-04-09T17:52:02.547Z,35.88
2023-04-09T17:54:36.827Z,31.50
2023-04-09T17:57:04.829Z,29.60
2023-04-09T17:59:33.256Z,29.83
2023-04-09T18:02:01.481Z,35.25
2023-04-09T18:04:29.278Z,41.13
2023-04-09T18:06:57.044Z,36.50
2023-04-09T18:09:24.354Z,31.35
2023-04-09T18:11:56.539Z,31.33
2023-04-09T18:14:24.330Z,26.73
2023-04-09T18:16:51.993Z,33.97
2023-04-09T18:19:19.384Z,39.70
2023-04-09T18:21:46.911Z,57.13
2023-04-09T18:24:14.172Z,55.17
2023-04-09T18:26:41.796Z,56.42
2023-04-09T18:29:09.097Z,49.05
2023-04-09T18:31:36.842Z,48.58
2023-04-09T18:34:04.178Z,65.07
2023-04-09T18:36:31.746Z,67.85
2023-04-09T18:38:59.049Z,75.97
2023-04-09T18:41:27.421Z,87.18
2023-04-09T18:43:55.196Z,95.55
2023-04-09T18:46:23.986Z,98.03
2023-04-09T18:48:51.897Z,120.60
2023-04-09T18:51:21.197Z,97.88
2023-04-09T18:53:54.639Z,89.00
2023-04-09T18:56:22.393Z,73.03
2023-04-09T18:58:51.882Z,63.80
2023-04-09T19:01:23.243Z,53.67
2023-04-09T19:03:50.822Z,47.33
2023-04-09T19:06:20.245Z,48.10
2023-04-09T19:08:50.154Z,45.92
2023-04-09T19:11:17.709Z,55.90
2023-04-09T19:13:44.949Z,52.65
2023-04-09T19:16:12.517Z,47.25
2023-04-09T19:18:39.777Z,46.42
2023-04-09T19:21:08.239Z,46.60
2023-04-09T19:23:35.900Z,50.15
2023-04-09T19:26:05.623Z,46.33
2023-04-09T19:28:32.890Z,40.95
2023-04-09T19:31:02.888Z,37.58
2023-04-09T19:33:30.924Z,46.13
2023-04-09T19:35:58.554Z,49.55
2023-04-09T19:38:25.835Z,58.75
2023-04-09T19:40:53.373Z,48.95
2023-04-09T19:43:21.073Z,54.00
2023-04-09T19:45:48.617Z,55.55
2023-04-09T19:48:16.133Z,63.28
2023-04-09T19:50:45.322Z,62.50
2023-04-09T19:53:12.594Z,50.85
2023-04-09T19:55:40.696Z,59.30
2023-04-09T19:58:07.948Z,61.33
2023-04-09T20:00:35.493Z,63.00
2023-04-09T20:03:03.302Z,52.67
2023-04-09T20:05:31.059Z,46.08
2023-04-09T20:07:58.372Z,50.45
2023-04-09T20:10:26.124Z,49.90
2023-04-09T20:12:54.046Z,50.28
2023-04-09T20:15:21.844Z,52.40
2023-04-09T20:17:50.663Z,54.83
2023-04-09T20:20:20.593Z,53.55
2023-04-09T20:22:56.258Z,50.08
2023-04-09T20:25:25.829Z,51.38
2023-04-09T20:27:54.383Z,52.83
2023-04-09T20:30:22.718Z,52.22
2023-04-09T20:32:50.150Z,58.45
2023-04-09T20:35:17.796Z,56.00
2023-04-09T20:37:45.156Z,56.20
2023-04-09T20:40:12.936Z,53.85
2023-04-09T20:42:44.314Z,55.35
2023-04-09T20:45:12.046Z,51.20
2023-04-09T20:47:39.338Z,60.03
2023-04-09T20:50:07.795Z,46.60
2023-04-09T20:52:35.171Z,61.78
2023-04-09T20:55:02.734Z,62.00
2023-04-09T20:57:30.001Z,66.50
2023-04-09T20:59:57.721Z,62.92
2023-04-09T21:02:25.660Z,62.17
2023-04-09T21:04:53.497Z,69.47
2023-04-09T21:07:20.879Z,60.97
2023-04-09T21:09:49.015Z,62.47
2023-04-09T21:12:16.339Z,70.75
2023-04-09T21:14:43.897Z,76.00
2023-04-09T21:17:11.162Z,65.22
2023-04-09T21:19:38.744Z,69.30
2023-04-09T21:22:06.029Z,69.85
2023-04-09T21:24:35.330Z,57.58
2023-04-09T21:27:06.818Z,65.43
2023-04-09T21:29:35.055Z,75.22
2023-04-09T21:32:02.953Z,76.85
2023-04-09T21:34:31.542Z,77.72
2023-04-09T21:36:58.954Z,80.90
2023-04-09T21:39:26.512Z,83.43
2023-04-09T21:41:53.745Z,79.18
2023-04-09T21:44:21.395Z,80.50
2023-04-09T21:46:48.772Z,73.35
2023-04-09T21:49:16.579Z,72.63
2023-04-09T21:51:46.637Z,74.78
2023-04-09T21:54:14.380Z,73.03
2023-04-09T21:56:41.639Z,80.57
2023-04-09T21:59:09.192Z,67.80
2023-04-09T22:01:36.548Z,54.97
2023-04-09T22:04:04.581Z,61.85
2023-04-09T22:06:32.334Z,60.28
2023-04-09T22:09:00.203Z,71.55
2023-04-09T22:11:28.878Z,62.80
2023-04-09T22:13:57.618Z,79.00
2023-04-09T22:16:26.124Z,75.43
2023-04-09T22:18:54.857Z,75.32
2023-04-09T22:21:22.613Z,74.07
2023-04-09T22:23:50.156Z,62.97
2023-04-09T22:26:17.511Z,65.00
2023-04-09T22:28:45.078Z,69.90
2023-04-09T22:31:12.618Z,63.55
2023-04-09T22:33:40.551Z,67.90
2023-04-09T22:36:08.300Z,56.78
2023-04-09T22:38:36.243Z,61.25
2023-04-09T22:41:03.613Z,72.25
2023-04-09T22:43:31.734Z,67.35
2023-04-09T22:45:58.949Z,67.85
2023-04-09T22:48:26.451Z,69.93
2023-04-09T22:50:53.718Z,69.03
2023-04-09T22:53:21.830Z,69.88
2023-04-09T22:55:51.651Z,66.03
2023-04-09T22:58:19.463Z,70.95
2023-04-09T23:00:47.625Z,61.97
2023-04-09T23:03:15.977Z,51.72
2023-04-09T23:05:43.906Z,56.92
2023-04-09T23:08:11.618Z,54.63
2023-04-09T23:10:38.902Z,60.40
2023-04-09T23:13:06.552Z,66.40
2023-04-09T23:15:34.185Z,60.10
2023-04-09T23:18:01.762Z,64.60
2023-04-09T23:20:30.013Z,72.43
2023-04-09T23:22:57.536Z,75.88
2023-04-09T23:25:24.797Z,70.45
2023-04-09T23:27:52.324Z,76.57
2023-04-09T23:30:21.649Z,77.25
2023-04-09T23:32:49.420Z,85.57
2023-04-09T23:35:16.816Z,77.55
2023-04-09T23:37:44.461Z,74.40
2023-04-09T23:40:12.619Z,78.43
2023-04-09T23:42:40.258Z,80.10
2023-04-09T23:45:08.316Z,75.22
2023-04-09T23:47:38.046Z,70.60
2023-04-09T23:50:07.975Z,68.40
2023-04-09T23:52:38.453Z,71.53
2023-04-09T23:55:10.865Z,72.30
2023-04-09T23:57:39.612Z,84.05
